Bei Facebook empfehlenBei Twitter postenGoogle plusPinterest

Das Wetter im Erzgebirge am 22.06.2016

Wetter und Klima am 22.06.2016 Holzhau im Erzgebirge (630m ü.NN)
Letzte gemessene Temperatur und Uhrzeit der Messung23:45:00 Uhr14.60 °C
Temperatur (Maximum / Höchstwert) und Uhrzeit der Messung16:00:00 Uhr24.80 °C
Temperatur (Minimum / Tiefstwert) und Uhrzeit der Messung01:45:009.90 °C
Errechneter Absolutwert der Temperaturschwankungen zwischen Tmin und Tmax des Tages14.90 K
Errechnete Tagesmitteltemperatur18.04375 °C
Gesamt - Niederschlag des Tages (in flüssiger Form)0.00 Liter / m²
Luftdruck (Maximum / Höchstwert) und Zeitpunkt der Messung23:45:00 Uhr1022.40 hPa
Luftdruck (Minimum / Tiefstwert) und Zeitpunkt der Messung00:15:00 Uhr1020.60 hPa
Errechneter Absolutwert der Luftdruckschwankungen des Tages1.80 hPa
Höchste gemessene Windgeschwindigkeit und Uhrzeit der Messung23:45:00 Uhr0.00 km/h
Errechnete Windhäufigkeit in Relation zu den Messwerten des Tages0.00000 %
Niedrigste Windkühle (Windchill) und Zeitpunkt der Messung01:45:00 Uhr9.90 °C
Taupunkt (Maximum / Höchstwert) und Uhrzeit der Messung17:45:00 Uhr17.60 °C
Taupunkt (Minimum / Tiefstwert) und Uhrzeit der Messung01:45:008.50 °C
Anzahl der automatisch eingelesenen Messwerte 96

Detaillierte Wetter- und Klima- Messwerte für den 22.06.2016 in Holzhau im Erzgebirge (630m ü.NN)
ZeitTemperaturLuftdruckRel. LuftfeuchteWindWindrichtungWindchillTaupunktNiederschlag l/m²
23:45:0014.60 °C1022.40 hPa89.00 %12.80 °C 
23:30:0014.90 °C1022.40 hPa89.00 %13.10 °C 
23:15:0014.90 °C1022.40 hPa88.00 %12.90 °C 
23:00:0014.90 °C1022.40 hPa87.00 %12.80 °C 
22:45:0015.30 °C1022.40 hPa86.00 %13.00 °C 
22:30:0015.60 °C1022.40 hPa85.00 %13.10 °C 
22:15:0016.00 °C1022.30 hPa84.00 %13.30 °C 
22:00:0016.50 °C1022.30 hPa83.00 %13.60 °C 
21:45:0017.00 °C1022.30 hPa82.00 %13.90 °C 
21:30:0017.50 °C1022.10 hPa79.00 %13.80 °C 
21:15:0018.20 °C1022.10 hPa77.00 %14.10 °C 
21:00:0019.10 °C1021.80 hPa75.00 %14.60 °C 
20:45:0020.40 °C1022.00 hPa72.00 %15.20 °C 
20:30:0021.30 °C1021.70 hPa70.00 %15.60 °C 
20:15:0022.10 °C1021.70 hPa68.00 %15.90 °C 
20:00:0023.00 °C1021.60 hPa65.00 %16.10 °C 
19:45:0023.80 °C1021.70 hPa64.00 %16.60 °C 
19:30:0023.90 °C1021.50 hPa64.00 %16.70 °C 
19:15:0023.90 °C1021.40 hPa63.00 %16.40 °C 
19:00:0023.90 °C1021.50 hPa63.00 %16.40 °C 
18:45:0024.00 °C1021.40 hPa64.00 %16.80 °C 
18:30:0024.30 °C1021.30 hPa65.00 %17.30 °C 
18:15:0024.20 °C1021.50 hPa63.00 %16.70 °C 
18:00:0024.10 °C1021.40 hPa63.00 %16.60 °C 
17:45:0024.40 °C1021.30 hPa66.00 %17.60 °C 
17:30:0023.90 °C1021.40 hPa66.00 %17.20 °C 
17:15:0023.30 °C1021.60 hPa69.00 %17.30 °C 
17:00:0021.90 °C1021.70 hPa69.00 %16.00 °C 
16:45:0022.30 °C1021.50 hPa67.00 %15.90 °C 
16:30:0023.10 °C1021.60 hPa65.00 %16.20 °C 
16:15:0023.90 °C1021.70 hPa63.00 %16.40 °C 
16:00:0024.80 °C1021.60 hPa62.00 %17.00 °C 
15:45:0024.30 °C1021.50 hPa64.00 %17.10 °C 
15:30:0023.30 °C1021.50 hPa65.00 %16.40 °C 
15:15:0023.50 °C1021.60 hPa64.00 %16.30 °C 
15:00:0024.50 °C1021.70 hPa61.00 %16.50 °C 
14:45:0024.30 °C1021.80 hPa64.00 %17.10 °C 
14:30:0023.80 °C1021.70 hPa65.00 %16.80 °C 
14:15:0024.10 °C1022.10 hPa64.00 %16.90 °C 
14:00:0023.30 °C1022.00 hPa65.00 %16.40 °C 
13:45:0023.30 °C1022.20 hPa65.00 %16.40 °C 
13:30:0023.20 °C1022.00 hPa65.00 %16.30 °C 
13:15:0023.70 °C1022.10 hPa65.00 %16.70 °C 
13:00:0023.40 °C1022.10 hPa67.00 %16.90 °C 
12:45:0022.40 °C1022.30 hPa67.00 %16.00 °C 
12:30:0022.60 °C1022.30 hPa66.00 %15.90 °C 
12:15:0022.90 °C1022.10 hPa66.00 %16.20 °C 
12:00:0023.00 °C1022.20 hPa68.00 %16.80 °C 
11:45:0022.70 °C1022.10 hPa71.00 %17.20 °C 
11:30:0021.00 °C1022.20 hPa75.00 %16.40 °C 
11:15:0019.60 °C1022.20 hPa75.00 %15.00 °C 
11:00:0019.60 °C1022.10 hPa75.00 %15.00 °C 
10:45:0019.80 °C1022.10 hPa75.00 %15.20 °C 
10:30:0020.10 °C1022.10 hPa74.00 %15.30 °C 
10:15:0020.30 °C1022.00 hPa76.00 %15.90 °C 
10:00:0019.90 °C1021.70 hPa76.00 %15.50 °C 
09:45:0020.00 °C1021.60 hPa76.00 %15.60 °C 
09:30:0019.30 °C1021.90 hPa79.00 %15.60 °C 
09:15:0018.50 °C1021.90 hPa79.00 %14.80 °C 
09:00:0018.90 °C1021.90 hPa77.00 %14.80 °C 
08:45:0019.70 °C1021.90 hPa77.00 %15.60 °C 
08:30:0020.20 °C1021.80 hPa78.00 %16.20 °C 
08:15:0020.50 °C1021.60 hPa82.00 %17.30 °C 
08:00:0019.60 °C1021.50 hPa86.00 %17.20 °C 
07:45:0017.70 °C1021.60 hPa89.00 %15.90 °C 
07:30:0017.30 °C1021.60 hPa90.00 %15.60 °C 
07:15:0015.50 °C1021.60 hPa93.00 %14.40 °C 
07:00:0014.30 °C1021.50 hPa93.00 %13.20 °C 
06:45:0013.80 °C1021.50 hPa93.00 %12.70 °C 
06:30:0013.30 °C1021.40 hPa93.00 %12.20 °C 
06:15:0012.90 °C1021.30 hPa93.00 %11.80 °C 
06:00:0012.10 °C1021.30 hPa93.00 %11.00 °C 
05:45:0011.90 °C1021.20 hPa93.00 %10.80 °C 
05:30:0011.60 °C1021.30 hPa93.00 %10.50 °C 
05:15:0011.30 °C1021.30 hPa93.00 %10.20 °C 
05:00:0011.30 °C1021.20 hPa93.00 %10.20 °C 
04:45:0011.50 °C1021.20 hPa93.00 %10.40 °C 
04:30:0011.40 °C1021.20 hPa93.00 %10.30 °C 
04:15:0011.20 °C1021.10 hPa93.00 %10.10 °C 
04:00:0011.10 °C1021.20 hPa93.00 %10.00 °C 
03:45:0010.90 °C1021.10 hPa93.00 %9.80 °C 
03:30:0010.80 °C1021.10 hPa93.00 %9.70 °C 
03:15:0010.60 °C1021.20 hPa92.00 %9.40 °C 
03:00:0010.50 °C1021.20 hPa92.00 %9.30 °C 
02:45:0010.30 °C1021.10 hPa92.00 %9.10 °C 
02:30:0010.30 °C1021.10 hPa92.00 %9.10 °C 
02:15:0010.30 °C1021.00 hPa92.00 %9.10 °C 
02:00:0010.30 °C1021.10 hPa92.00 %9.10 °C 
01:45:009.90 °C1021.10 hPa91.00 %8.50 °C 
01:30:0010.20 °C1021.00 hPa91.00 %8.80 °C 
01:15:0010.40 °C1020.70 hPa91.00 %9.00 °C 
01:00:0010.60 °C1020.70 hPa91.00 %9.20 °C 
00:45:0010.60 °C1020.90 hPa90.00 %9.00 °C 
00:30:0010.50 °C1020.70 hPa90.00 %8.90 °C 
00:15:0010.60 °C1020.60 hPa89.00 %8.90 °C 
00:00:0010.90 °C1020.60 hPa89.00 %9.20 °C 

Permanenter Link zu dieser Seite: Wetter im Erzgebirge am 22.06.2016
Performance-Info: Die Erstellung der Seite / Statistik(en) / Tabelle(n) erforderte 5 Datenbankserver-Abfrage(n) und dauerte 99 Millisekunden. (Dieser Messwert ist von der Gesamt-Auslastung des Servers abhängig.)
Erzgebirge - Wetter | Erzgebirge - Wetter (Mobilgeräte) | Komplette Klimadatenbank